Disclaimer

Please do not use the information listed here in-flight or in-navigation, as they are not provided to us by the airports but are provided by volunteers, so they might be outdated.

Search


Regions


Airport information page

Radio informations:
LEEWARD TWR - 134.1 MHz
METRO - 126.2 MHz
Ground (GND) - 118.45 MHz
Common traffic adv. frequency (CTAF) - 134.1 MHz
ASOS - 136.175 MHz

Airport informations:
Latitude: 19° 54' 23.25" N
Longitude: 075° 12' 25.40" W
Elevation: 56 feet - 17 meters
Operating hours: Remarks
Operating agency: US Navy
Timezone: UTC-5(-4DT) - Second Sunday in March at 0200 to first Sunday in November at 0200 local time (Exception Arizona and that portion of Indiana in the Eastern Time Zone)
Fuel: JP-5, Keroscene MIL Spec T-5624

Runway information:
10/28 - 8000 x 200 feet< - >2438 x 61 meters

Recent METARs:
MUGM 162256Z 00000KT 9999 FEW030 FEW080 SCT280 28/24 A2993 RMK SLP136 OCNL LTGIC DSNT NE CB DSNT N AND NE T02840243
MUGM 162356Z 19003KT 9999 FEW025 FEW080 SCT280 28/24 A2995 RMK SLP140 T02800244 10311 20280 53013
MUGM 162356Z 19003KT 9999 FEW025 FEW080 SCT280 28/24 A2995 RMK SLP140 T02800244 10311 20280 53013

Airport on the map: